createdAt,value
2019-05-25T00:01:12.538Z,64.22
2019-05-25T00:03:42.086Z,64.30
2019-05-25T00:06:11.554Z,64.44
2019-05-25T00:08:41.104Z,65.96
2019-05-25T00:11:10.473Z,64.41
2019-05-25T00:13:40.279Z,64.41
2019-05-25T00:16:09.787Z,64.07
2019-05-25T00:18:39.301Z,64.17
2019-05-25T00:21:08.767Z,63.75
2019-05-25T00:23:38.258Z,64.15
2019-05-25T00:26:07.777Z,64.67
2019-05-25T00:28:37.363Z,63.81
2019-05-25T00:31:06.887Z,62.61
2019-05-25T00:33:36.549Z,62.51
2019-05-25T00:36:06.177Z,63.66
2019-05-25T00:38:35.666Z,63.54
2019-05-25T00:41:05.219Z,62.33
2019-05-25T00:43:34.674Z,63.43
2019-05-25T00:46:04.259Z,63.46
2019-05-25T00:48:33.766Z,64.00
2019-05-25T00:51:03.261Z,65.93
2019-05-25T00:53:32.871Z,66.35
2019-05-25T00:56:02.435Z,66.44
2019-05-25T00:58:31.980Z,66.66
2019-05-25T01:01:01.627Z,66.11
2019-05-25T01:03:31.101Z,66.58
2019-05-25T01:06:00.646Z,66.05
2019-05-25T01:08:30.141Z,65.96
2019-05-25T01:10:59.722Z,66.64
2019-05-25T01:13:29.228Z,67.22
2019-05-25T01:15:59.093Z,66.63
2019-05-25T01:18:28.567Z,66.77
2019-05-25T01:20:58.101Z,66.95
2019-05-25T01:23:27.627Z,67.10
2019-05-25T01:25:57.068Z,67.15
2019-05-25T01:28:26.490Z,66.75
2019-05-25T01:30:56.270Z,67.18
2019-05-25T01:33:25.815Z,67.50
2019-05-25T01:35:55.358Z,68.03
2019-05-25T01:38:24.820Z,68.11
2019-05-25T01:40:54.293Z,67.56
2019-05-25T01:43:23.897Z,66.79
2019-05-25T01:45:53.365Z,66.33
2019-05-25T01:48:22.880Z,66.45
2019-05-25T01:50:52.460Z,66.85
2019-05-25T01:53:22.205Z,67.57
2019-05-25T01:55:51.660Z,67.54
2019-05-25T01:58:21.119Z,66.98
2019-05-25T02:00:50.597Z,67.27
2019-05-25T02:03:20.392Z,67.18
2019-05-25T02:05:49.812Z,67.38
2019-05-25T02:08:19.279Z,67.48
2019-05-25T02:10:48.759Z,67.89
2019-05-25T02:13:18.284Z,68.44
2019-05-25T02:15:47.972Z,69.59
2019-05-25T02:18:17.416Z,70.27
2019-05-25T02:20:46.886Z,70.71
2019-05-25T02:23:16.457Z,70.49
2019-05-25T02:25:46.069Z,70.49
2019-05-25T02:28:15.652Z,70.20
2019-05-25T02:30:45.123Z,70.54
2019-05-25T02:33:14.649Z,70.58
2019-05-25T02:35:44.199Z,70.93
2019-05-25T02:38:13.772Z,72.24
2019-05-25T02:40:43.338Z,73.24
2019-05-25T02:43:13.010Z,72.94
2019-05-25T02:45:42.559Z,72.22
2019-05-25T02:48:12.075Z,69.88
2019-05-25T02:50:41.546Z,70.16
2019-05-25T02:53:11.003Z,70.34
2019-05-25T02:55:40.565Z,70.95
2019-05-25T02:58:10.130Z,71.93
2019-05-25T03:00:39.748Z,72.28
2019-05-25T03:03:09.288Z,72.89
2019-05-25T03:05:38.838Z,73.40
2019-05-25T03:08:08.396Z,73.40
2019-05-25T03:10:37.995Z,72.84
2019-05-25T03:13:07.504Z,73.06
2019-05-25T03:15:36.967Z,73.50
2019-05-25T03:18:06.465Z,73.83
2019-05-25T03:20:35.987Z,73.83
2019-05-25T03:23:05.896Z,73.65
2019-05-25T03:25:48.697Z,73.65
2019-05-25T03:28:06.667Z,72.92
2019-05-25T03:30:37.902Z,71.49
2019-05-25T03:33:10.476Z,71.49
2019-05-25T03:35:40.089Z,70.83
2019-05-25T03:38:09.690Z,71.74
2019-05-25T03:40:39.663Z,71.74
2019-05-25T03:43:09.132Z,71.62
2019-05-25T03:45:38.702Z,71.40
2019-05-25T03:48:08.230Z,71.40
2019-05-25T03:50:37.686Z,72.03
2019-05-25T03:53:07.159Z,72.03
2019-05-25T03:55:36.599Z,73.76
2019-05-25T03:58:06.066Z,73.76
2019-05-25T04:00:36.914Z,74.16
2019-05-25T04:03:06.938Z,74.30
2019-05-25T04:05:36.430Z,74.30
2019-05-25T04:08:06.049Z,74.44
2019-05-25T04:10:38.638Z,74.01
2019-05-25T04:13:06.761Z,73.80
2019-05-25T04:15:36.279Z,73.67
2019-05-25T04:18:05.784Z,73.67
2019-05-25T04:20:35.807Z,73.29
2019-05-25T04:23:05.314Z,72.14
2019-05-25T04:25:34.918Z,72.14
2019-05-25T04:28:04.439Z,72.43
2019-05-25T04:30:34.265Z,72.36
2019-05-25T04:33:03.740Z,72.42
2019-05-25T04:35:33.264Z,71.31
2019-05-25T04:38:02.857Z,70.83
2019-05-25T04:40:32.411Z,69.64
2019-05-25T04:43:01.961Z,68.78
2019-05-25T04:45:31.421Z,68.21
2019-05-25T04:48:01.077Z,67.42
2019-05-25T04:50:30.503Z,67.62
2019-05-25T04:52:59.991Z,67.40
2019-05-25T04:55:29.482Z,66.88
2019-05-25T04:57:59.060Z,66.51
2019-05-25T05:00:29.030Z,66.77
2019-05-25T05:02:58.849Z,66.22
2019-05-25T05:05:28.405Z,65.97
2019-05-25T05:07:57.973Z,65.91
2019-05-25T05:10:27.744Z,64.59
2019-05-25T05:12:57.359Z,62.85
2019-05-25T05:15:26.882Z,62.52
2019-05-25T05:17:56.333Z,61.95
2019-05-25T05:20:25.832Z,60.78
2019-05-25T05:22:55.354Z,59.85
2019-05-25T05:25:24.855Z,59.90
2019-05-25T05:27:54.691Z,60.31
2019-05-25T05:30:32.808Z,59.54
2019-05-25T05:33:02.416Z,60.01
2019-05-25T05:35:33.578Z,59.91
2019-05-25T05:38:05.955Z,60.05
2019-05-25T05:40:37.257Z,60.98
2019-05-25T05:43:11.509Z,61.27
2019-05-25T05:45:43.692Z,61.74
2019-05-25T05:48:15.061Z,62.83
2019-05-25T05:50:49.423Z,63.12
2019-05-25T05:53:21.288Z,63.12
2019-05-25T05:55:50.894Z,63.39
2019-05-25T05:58:20.484Z,63.62
2019-05-25T06:00:50.094Z,63.49
2019-05-25T06:03:19.587Z,63.32
2019-05-25T06:05:49.301Z,63.57
2019-05-25T06:08:18.781Z,63.07
2019-05-25T06:10:48.359Z,63.93
2019-05-25T06:13:17.879Z,64.14
2019-05-25T06:15:51.227Z,64.22
2019-05-25T06:18:20.784Z,64.49
2019-05-25T06:20:50.511Z,64.28
2019-05-25T06:23:20.012Z,62.96
2019-05-25T06:25:49.470Z,62.94
2019-05-25T06:28:22.230Z,62.26
2019-05-25T06:30:50.301Z,60.79
2019-05-25T06:33:19.862Z,60.94
2019-05-25T06:35:49.547Z,60.42
2019-05-25T06:38:19.134Z,60.10
2019-05-25T06:40:48.725Z,60.60
2019-05-25T06:43:18.156Z,59.52
2019-05-25T06:45:47.953Z,59.56
2019-05-25T06:48:17.431Z,57.95
2019-05-25T06:50:46.905Z,57.61
2019-05-25T06:53:16.406Z,56.06
2019-05-25T06:55:46.002Z,55.04
2019-05-25T06:58:15.634Z,53.20
2019-05-25T07:00:45.243Z,52.19
2019-05-25T07:03:14.622Z,51.78
2019-05-25T07:05:44.214Z,50.38
2019-05-25T07:08:14.773Z,49.78
2019-05-25T07:10:44.259Z,49.91
2019-05-25T07:13:13.748Z,48.58
2019-05-25T07:15:43.277Z,48.63
2019-05-25T07:18:12.892Z,49.06
2019-05-25T07:20:42.386Z,47.69
2019-05-25T07:23:11.894Z,46.90
2019-05-25T07:25:41.480Z,46.37
2019-05-25T07:28:11.007Z,45.90
2019-05-25T07:30:40.753Z,45.79
2019-05-25T07:33:10.372Z,44.50
2019-05-25T07:35:39.781Z,42.56
2019-05-25T07:38:09.363Z,42.47
2019-05-25T07:40:38.864Z,41.77
2019-05-25T07:43:08.458Z,41.33
2019-05-25T07:45:37.897Z,38.71
2019-05-25T07:48:07.588Z,36.09
2019-05-25T07:50:37.041Z,37.34
2019-05-25T07:53:06.564Z,36.28
2019-05-25T07:55:35.996Z,35.12
2019-05-25T07:58:16.490Z,35.16
2019-05-25T08:00:36.992Z,34.10
2019-05-25T08:03:06.703Z,31.74
2019-05-25T08:05:36.196Z,32.57
2019-05-25T08:08:05.824Z,36.63
2019-05-25T08:10:35.225Z,36.75
2019-05-25T08:13:04.726Z,33.62
2019-05-25T08:15:34.350Z,33.36
2019-05-25T08:18:03.820Z,32.66
2019-05-25T08:20:33.392Z,32.66
2019-05-25T08:23:02.882Z,31.68
2019-05-25T08:25:32.345Z,30.18
2019-05-25T08:28:01.912Z,28.32
2019-05-25T08:30:31.447Z,30.44
2019-05-25T08:33:01.047Z,30.24
2019-05-25T08:35:30.578Z,26.37
2019-05-25T08:38:00.165Z,28.22
2019-05-25T08:40:29.605Z,24.36
2019-05-25T08:42:59.134Z,23.41
2019-05-25T08:45:28.650Z,23.04
2019-05-25T08:47:58.217Z,23.46
2019-05-25T08:50:37.916Z,23.07
2019-05-25T08:52:59.192Z,22.91
2019-05-25T09:27:39.469Z,15.86
2019-05-25T09:30:09.400Z,16.17
2019-05-25T09:32:38.911Z,14.91
2019-05-25T09:35:09.210Z,13.77
2019-05-25T09:37:38.602Z,12.22
2019-05-25T09:40:08.395Z,13.58
2019-05-25T09:42:38.515Z,14.34
2019-05-25T09:45:09.872Z,15.51
2019-05-25T09:47:39.347Z,11.03
2019-05-25T09:50:09.301Z,11.96
2019-05-25T09:52:38.723Z,12.87
2019-05-25T09:55:09.005Z,13.97
2019-05-25T09:57:41.600Z,14.26
2019-05-25T10:00:10.923Z,17.81
2019-05-25T10:02:40.504Z,17.45
2019-05-25T10:05:11.109Z,16.53
2019-05-25T10:07:40.779Z,19.41
2019-05-25T10:10:11.979Z,19.13
2019-05-25T10:12:41.842Z,21.66
2019-05-25T10:15:12.109Z,18.57
2019-05-25T10:17:41.821Z,19.21
2019-05-25T10:20:15.015Z,22.53
2019-05-25T10:22:44.470Z,22.68
2019-05-25T10:25:14.231Z,24.27
2019-05-25T10:27:43.774Z,25.33
2019-05-25T10:30:17.379Z,27.13
2019-05-25T10:32:46.967Z,28.23
2019-05-25T10:35:16.869Z,28.67
2019-05-25T10:37:46.376Z,31.40
2019-05-25T10:40:16.049Z,34.54
2019-05-25T10:42:48.499Z,34.76
2019-05-25T10:45:18.354Z,35.90
2019-05-25T10:47:48.140Z,36.54
2019-05-25T10:50:18.293Z,36.69
2019-05-25T10:52:48.514Z,35.76
2019-05-25T10:55:18.518Z,34.58
2019-05-25T10:57:48.311Z,34.55
2019-05-25T11:00:40.927Z,35.25
2019-05-25T11:03:10.455Z,34.29
2019-05-25T11:05:40.196Z,33.89
2019-05-25T11:08:09.897Z,33.82
2019-05-25T11:10:39.496Z,32.60
2019-05-25T11:13:09.071Z,31.83
2019-05-25T11:15:38.628Z,31.29
2019-05-25T11:18:08.285Z,29.18
2019-05-25T11:20:37.844Z,28.29
2019-05-25T11:23:07.355Z,27.05
2019-05-25T11:25:36.914Z,24.76
2019-05-25T11:28:08.450Z,25.93
2019-05-25T11:30:37.661Z,27.26
2019-05-25T11:33:07.214Z,25.21
2019-05-25T11:35:36.796Z,25.51
2019-05-25T11:38:06.354Z,24.45
2019-05-25T11:40:35.982Z,26.52
2019-05-25T11:43:05.503Z,26.49
2019-05-25T11:45:35.069Z,26.20
2019-05-25T11:48:04.757Z,27.34
2019-05-25T11:50:34.269Z,26.74
2019-05-25T11:53:05.988Z,28.32
2019-05-25T11:55:35.315Z,29.46
2019-05-25T11:58:04.817Z,29.26
2019-05-25T12:00:34.464Z,30.80
2019-05-25T12:03:04.089Z,30.34
2019-05-25T12:05:33.761Z,31.28
2019-05-25T12:08:03.318Z,32.61
2019-05-25T12:10:32.883Z,31.94
2019-05-25T12:13:02.299Z,31.57
2019-05-25T12:15:31.872Z,32.33
2019-05-25T12:18:01.336Z,30.21
2019-05-25T12:20:30.822Z,29.68
2019-05-25T12:23:00.418Z,29.15
2019-05-25T12:25:29.897Z,28.78
2019-05-25T12:27:59.472Z,29.80
2019-05-25T12:30:40.228Z,28.99
2019-05-25T12:33:00.415Z,30.80
2019-05-25T12:35:30.030Z,28.04
2019-05-25T12:37:59.576Z,28.11
2019-05-25T12:40:29.017Z,29.76
2019-05-25T12:42:58.541Z,29.25
2019-05-25T12:45:28.185Z,28.12
2019-05-25T12:47:57.789Z,27.48
2019-05-25T12:50:27.419Z,24.30
2019-05-25T12:52:57.205Z,24.87
2019-05-25T12:55:26.865Z,26.87
2019-05-25T12:57:56.304Z,25.45
2019-05-25T13:00:25.814Z,24.24
2019-05-25T13:02:55.698Z,24.66
2019-05-25T13:05:33.551Z,21.41
2019-05-25T13:07:56.534Z,19.49
2019-05-25T13:10:26.780Z,17.99
2019-05-25T13:12:57.797Z,20.58
2019-05-25T13:15:27.740Z,23.32
2019-05-25T13:17:57.557Z,25.18
2019-05-25T13:20:27.516Z,22.64
2019-05-25T13:22:57.209Z,21.30
2019-05-25T13:25:26.742Z,19.28
2019-05-25T13:27:56.318Z,19.37
2019-05-25T13:30:25.933Z,19.99
2019-05-25T13:32:55.486Z,18.89
2019-05-25T13:35:25.068Z,19.21
2019-05-25T13:37:54.615Z,18.77
2019-05-25T13:40:25.165Z,18.79
2019-05-25T13:42:54.755Z,19.39
2019-05-25T13:45:24.264Z,20.99
2019-05-25T13:47:53.969Z,20.77
2019-05-25T13:50:23.485Z,21.90
2019-05-25T13:52:53.046Z,20.80
2019-05-25T13:55:22.569Z,23.36
2019-05-25T13:57:52.387Z,24.93
2019-05-25T14:00:22.359Z,21.19
2019-05-25T14:02:51.781Z,20.92
2019-05-25T14:05:21.475Z,20.62
2019-05-25T14:07:50.941Z,22.02
2019-05-25T14:10:20.633Z,23.03
2019-05-25T14:12:50.174Z,25.41
2019-05-25T14:15:19.752Z,27.42
2019-05-25T14:17:49.269Z,27.18
2019-05-25T14:20:18.969Z,31.33
2019-05-25T14:22:48.438Z,29.38
2019-05-25T14:25:17.964Z,28.51
2019-05-25T14:27:47.433Z,27.97
2019-05-25T14:30:19.084Z,27.60
2019-05-25T14:32:48.521Z,28.18
2019-05-25T14:35:18.070Z,28.64
2019-05-25T14:37:47.525Z,30.40
2019-05-25T14:40:17.564Z,29.66
2019-05-25T14:42:47.092Z,28.99
2019-05-25T14:45:16.751Z,29.05
2019-05-25T14:47:46.278Z,31.78
2019-05-25T14:50:16.271Z,31.88
2019-05-25T14:52:45.842Z,35.96
2019-05-25T14:55:15.450Z,41.89
2019-05-25T14:57:45.198Z,46.89
2019-05-25T15:00:15.684Z,48.49
2019-05-25T15:02:45.182Z,49.44
2019-05-25T15:05:15.054Z,50.40
2019-05-25T15:07:44.804Z,51.68
2019-05-25T15:10:15.170Z,52.44
2019-05-25T15:12:45.458Z,50.81
2019-05-25T15:15:18.722Z,51.82
2019-05-25T15:17:49.668Z,52.60
2019-05-25T15:20:19.439Z,53.09
2019-05-25T15:22:52.138Z,54.60
2019-05-25T15:25:21.800Z,55.22
2019-05-25T15:27:51.897Z,55.44
2019-05-25T15:30:21.819Z,55.79
2019-05-25T15:32:54.120Z,56.07
